sensor_id;sensor_type;location;lat;lon;timestamp;P1;durP1;ratioP1;P2;durP2;ratioP2
80421;SDS011;69763;50.182;9.144;2023-11-19T00:00:02;3.53;;;2.13;;
80421;SDS011;69763;50.182;9.144;2023-11-19T00:02:27;2.97;;;1.95;;
80421;SDS011;69763;50.182;9.144;2023-11-19T00:04:53;4.00;;;2.58;;
80421;SDS011;69763;50.182;9.144;2023-11-19T00:07:18;4.88;;;2.38;;
80421;SDS011;69763;50.182;9.144;2023-11-19T00:09:43;3.30;;;2.30;;
80421;SDS011;69763;50.182;9.144;2023-11-19T00:12:10;5.07;;;2.78;;
80421;SDS011;69763;50.182;9.144;2023-11-19T00:17:01;3.23;;;2.20;;
80421;SDS011;69763;50.182;9.144;2023-11-19T00:19:26;5.30;;;2.35;;
80421;SDS011;69763;50.182;9.144;2023-11-19T00:21:52;4.32;;;2.22;;
80421;SDS011;69763;50.182;9.144;2023-11-19T00:24:18;4.18;;;2.20;;
80421;SDS011;69763;50.182;9.144;2023-11-19T00:26:43;3.53;;;2.30;;
80421;SDS011;69763;50.182;9.144;2023-11-19T00:29:10;3.72;;;2.22;;
80421;SDS011;69763;50.182;9.144;2023-11-19T00:31:36;5.00;;;2.45;;
80421;SDS011;69763;50.182;9.144;2023-11-19T00:34:01;3.95;;;2.05;;
80421;SDS011;69763;50.182;9.144;2023-11-19T00:36:27;3.05;;;1.83;;
80421;SDS011;69763;50.182;9.144;2023-11-19T00:38:52;3.75;;;2.15;;
80421;SDS011;69763;50.182;9.144;2023-11-19T00:41:18;7.45;;;2.90;;
80421;SDS011;69763;50.182;9.144;2023-11-19T00:43:43;3.33;;;2.22;;
80421;SDS011;69763;50.182;9.144;2023-11-19T00:46:10;4.20;;;2.20;;
80421;SDS011;69763;50.182;9.144;2023-11-19T00:51:01;4.57;;;2.10;;
80421;SDS011;69763;50.182;9.144;2023-11-19T00:53:26;4.80;;;1.88;;
80421;SDS011;69763;50.182;9.144;2023-11-19T00:55:51;3.10;;;1.95;;
80421;SDS011;69763;50.182;9.144;2023-11-19T00:58:17;4.70;;;2.05;;
80421;SDS011;69763;50.182;9.144;2023-11-19T01:00:42;2.78;;;1.85;;
80421;SDS011;69763;50.182;9.144;2023-11-19T01:03:09;3.20;;;2.08;;
80421;SDS011;69763;50.182;9.144;2023-11-19T01:07:59;8.37;;;2.30;;
80421;SDS011;69763;50.182;9.144;2023-11-19T01:10:25;4.60;;;2.10;;
80421;SDS011;69763;50.182;9.144;2023-11-19T01:12:50;4.88;;;2.47;;
80421;SDS011;69763;50.182;9.144;2023-11-19T01:15:15;3.70;;;2.38;;
80421;SDS011;69763;50.182;9.144;2023-11-19T01:17:41;4.22;;;2.38;;
80421;SDS011;69763;50.182;9.144;2023-11-19T01:20:08;4.03;;;2.60;;
80421;SDS011;69763;50.182;9.144;2023-11-19T01:22:33;5.95;;;2.53;;
80421;SDS011;69763;50.182;9.144;2023-11-19T01:24:59;3.67;;;2.42;;
80421;SDS011;69763;50.182;9.144;2023-11-19T01:27:24;4.05;;;2.28;;
80421;SDS011;69763;50.182;9.144;2023-11-19T01:29:49;3.38;;;2.17;;
80421;SDS011;69763;50.182;9.144;2023-11-19T01:32:15;4.22;;;2.30;;
80421;SDS011;69763;50.182;9.144;2023-11-19T01:34:40;3.78;;;2.45;;
80421;SDS011;69763;50.182;9.144;2023-11-19T01:37:07;2.88;;;1.92;;
80421;SDS011;69763;50.182;9.144;2023-11-19T01:41:58;3.70;;;2.27;;
80421;SDS011;69763;50.182;9.144;2023-11-19T01:44:23;3.28;;;2.13;;
80421;SDS011;69763;50.182;9.144;2023-11-19T01:46:48;3.97;;;2.22;;
80421;SDS011;69763;50.182;9.144;2023-11-19T01:49:14;3.72;;;2.20;;
80421;SDS011;69763;50.182;9.144;2023-11-19T01:51:40;3.00;;;1.92;;
80421;SDS011;69763;50.182;9.144;2023-11-19T01:54:08;5.38;;;2.38;;
80421;SDS011;69763;50.182;9.144;2023-11-19T01:56:34;4.65;;;2.20;;
80421;SDS011;69763;50.182;9.144;2023-11-19T01:59:00;3.97;;;2.20;;
80421;SDS011;69763;50.182;9.144;2023-11-19T02:01:25;3.38;;;2.33;;
80421;SDS011;69763;50.182;9.144;2023-11-19T02:03:52;4.65;;;2.50;;
80421;SDS011;69763;50.182;9.144;2023-11-19T02:06:17;3.47;;;2.00;;
80421;SDS011;69763;50.182;9.144;2023-11-19T02:08:43;3.38;;;2.00;;
80421;SDS011;69763;50.182;9.144;2023-11-19T02:11:10;3.35;;;2.10;;
80421;SDS011;69763;50.182;9.144;2023-11-19T02:13:36;2.80;;;2.20;;
80421;SDS011;69763;50.182;9.144;2023-11-19T02:16:02;2.83;;;2.00;;
80421;SDS011;69763;50.182;9.144;2023-11-19T02:18:28;3.75;;;2.25;;
80421;SDS011;69763;50.182;9.144;2023-11-19T02:20:54;5.57;;;2.08;;
80421;SDS011;69763;50.182;9.144;2023-11-19T02:23:20;4.68;;;2.78;;
80421;SDS011;69763;50.182;9.144;2023-11-19T02:25:47;2.92;;;1.90;;
80421;SDS011;69763;50.182;9.144;2023-11-19T02:28:20;3.38;;;2.13;;
80421;SDS011;69763;50.182;9.144;2023-11-19T02:33:11;2.93;;;2.00;;
80421;SDS011;69763;50.182;9.144;2023-11-19T02:35:36;2.58;;;1.83;;
80421;SDS011;69763;50.182;9.144;2023-11-19T02:38:02;2.58;;;1.70;;
80421;SDS011;69763;50.182;9.144;2023-11-19T02:40:27;4.07;;;1.75;;
80421;SDS011;69763;50.182;9.144;2023-11-19T02:42:53;3.42;;;2.00;;
80421;SDS011;69763;50.182;9.144;2023-11-19T02:45:20;4.22;;;1.70;;
80421;SDS011;69763;50.182;9.144;2023-11-19T02:47:45;3.55;;;2.03;;
80421;SDS011;69763;50.182;9.144;2023-11-19T02:50:11;4.13;;;2.03;;
80421;SDS011;69763;50.182;9.144;2023-11-19T02:52:36;2.28;;;1.60;;
80421;SDS011;69763;50.182;9.144;2023-11-19T02:55:02;3.20;;;1.98;;
80421;SDS011;69763;50.182;9.144;2023-11-19T02:57:30;5.43;;;1.80;;
80421;SDS011;69763;50.182;9.144;2023-11-19T02:59:56;3.75;;;1.75;;
80421;SDS011;69763;50.182;9.144;2023-11-19T03:02:22;3.97;;;2.33;;
80421;SDS011;69763;50.182;9.144;2023-11-19T03:07:13;3.10;;;1.80;;
80421;SDS011;69763;50.182;9.144;2023-11-19T03:09:38;2.97;;;2.10;;
80421;SDS011;69763;50.182;9.144;2023-11-19T03:12:04;5.88;;;1.70;;
80421;SDS011;69763;50.182;9.144;2023-11-19T03:14:30;2.33;;;1.63;;
80421;SDS011;69763;50.182;9.144;2023-11-19T03:16:58;2.78;;;1.70;;
80421;SDS011;69763;50.182;9.144;2023-11-19T03:19:25;3.20;;;1.70;;
80421;SDS011;69763;50.182;9.144;2023-11-19T03:24:15;2.13;;;1.40;;
80421;SDS011;69763;50.182;9.144;2023-11-19T03:26:41;3.22;;;1.60;;
80421;SDS011;69763;50.182;9.144;2023-11-19T03:29:06;2.15;;;1.45;;
80421;SDS011;69763;50.182;9.144;2023-11-19T03:31:31;2.08;;;1.48;;
80421;SDS011;69763;50.182;9.144;2023-11-19T03:33:57;2.28;;;1.52;;
80421;SDS011;69763;50.182;9.144;2023-11-19T03:36:23;1.85;;;1.45;;
80421;SDS011;69763;50.182;9.144;2023-11-19T03:41:14;1.63;;;1.20;;
80421;SDS011;69763;50.182;9.144;2023-11-19T03:43:40;2.22;;;1.65;;
80421;SDS011;69763;50.182;9.144;2023-11-19T03:46:15;1.52;;;1.13;;
80421;SDS011;69763;50.182;9.144;2023-11-19T03:48:41;3.28;;;1.55;;
80421;SDS011;69763;50.182;9.144;2023-11-19T03:51:07;3.30;;;1.42;;
80421;SDS011;69763;50.182;9.144;2023-11-19T03:53:33;1.98;;;1.23;;
80421;SDS011;69763;50.182;9.144;2023-11-19T03:58:24;5.23;;;1.53;;
80421;SDS011;69763;50.182;9.144;2023-11-19T04:00:49;3.13;;;1.50;;
80421;SDS011;69763;50.182;9.144;2023-11-19T04:03:14;2.83;;;1.30;;
80421;SDS011;69763;50.182;9.144;2023-11-19T04:05:40;2.03;;;1.40;;
80421;SDS011;69763;50.182;9.144;2023-11-19T04:08:05;1.60;;;1.20;;
80421;SDS011;69763;50.182;9.144;2023-11-19T04:10:32;2.38;;;1.50;;
80421;SDS011;69763;50.182;9.144;2023-11-19T04:12:57;4.20;;;1.23;;
80421;SDS011;69763;50.182;9.144;2023-11-19T04:15:23;2.55;;;1.50;;
80421;SDS011;69763;50.182;9.144;2023-11-19T04:17:48;1.95;;;1.38;;
80421;SDS011;69763;50.182;9.144;2023-11-19T04:20:13;2.25;;;1.40;;
80421;SDS011;69763;50.182;9.144;2023-11-19T04:22:39;2.28;;;1.42;;
80421;SDS011;69763;50.182;9.144;2023-11-19T04:25:04;1.77;;;1.40;;
80421;SDS011;69763;50.182;9.144;2023-11-19T04:27:32;2.20;;;1.33;;
80421;SDS011;69763;50.182;9.144;2023-11-19T04:32:22;2.00;;;1.50;;
80421;SDS011;69763;50.182;9.144;2023-11-19T04:34:48;1.88;;;1.30;;
80421;SDS011;69763;50.182;9.144;2023-11-19T04:37:13;2.00;;;1.50;;
80421;SDS011;69763;50.182;9.144;2023-11-19T04:39:38;2.05;;;1.55;;
80421;SDS011;69763;50.182;9.144;2023-11-19T04:42:04;2.20;;;1.70;;
80421;SDS011;69763;50.182;9.144;2023-11-19T04:44:31;3.20;;;1.50;;
80421;SDS011;69763;50.182;9.144;2023-11-19T04:49:21;2.17;;;1.50;;
80421;SDS011;69763;50.182;9.144;2023-11-19T04:51:47;2.33;;;1.40;;
80421;SDS011;69763;50.182;9.144;2023-11-19T04:54:12;2.90;;;1.50;;
80421;SDS011;69763;50.182;9.144;2023-11-19T04:56:38;2.08;;;1.42;;
80421;SDS011;69763;50.182;9.144;2023-11-19T04:59:03;1.10;;;1.00;;
80421;SDS011;69763;50.182;9.144;2023-11-19T05:01:30;2.40;;;1.50;;
80421;SDS011;69763;50.182;9.144;2023-11-19T05:03:56;2.67;;;1.50;;
80421;SDS011;69763;50.182;9.144;2023-11-19T05:06:21;3.85;;;1.50;;
80421;SDS011;69763;50.182;9.144;2023-11-19T05:08:47;1.92;;;1.40;;
80421;SDS011;69763;50.182;9.144;2023-11-19T05:11:12;2.58;;;1.40;;
80421;SDS011;69763;50.182;9.144;2023-11-19T05:13:38;2.42;;;1.40;;
80421;SDS011;69763;50.182;9.144;2023-11-19T05:16:03;2.33;;;1.60;;
80421;SDS011;69763;50.182;9.144;2023-11-19T05:18:30;1.73;;;1.48;;
80421;SDS011;69763;50.182;9.144;2023-11-19T05:23:21;2.47;;;1.70;;
80421;SDS011;69763;50.182;9.144;2023-11-19T05:25:46;2.22;;;1.65;;
80421;SDS011;69763;50.182;9.144;2023-11-19T05:28:12;2.35;;;1.65;;
80421;SDS011;69763;50.182;9.144;2023-11-19T05:30:37;2.70;;;1.60;;
80421;SDS011;69763;50.182;9.144;2023-11-19T05:33:03;3.75;;;1.50;;
80421;SDS011;69763;50.182;9.144;2023-11-19T05:35:29;2.42;;;1.83;;
80421;SDS011;69763;50.182;9.144;2023-11-19T05:40:20;1.93;;;1.40;;
80421;SDS011;69763;50.182;9.144;2023-11-19T05:42:45;2.47;;;1.50;;
80421;SDS011;69763;50.182;9.144;2023-11-19T05:45:11;3.83;;;1.85;;
80421;SDS011;69763;50.182;9.144;2023-11-19T05:47:37;2.05;;;1.70;;
80421;SDS011;69763;50.182;9.144;2023-11-19T05:50:02;1.92;;;1.55;;
80421;SDS011;69763;50.182;9.144;2023-11-19T05:52:30;2.88;;;1.90;;
80421;SDS011;69763;50.182;9.144;2023-11-19T05:57:20;1.90;;;1.30;;
80421;SDS011;69763;50.182;9.144;2023-11-19T05:59:46;2.40;;;1.80;;
80421;SDS011;69763;50.182;9.144;2023-11-19T06:02:11;1.73;;;1.33;;
80421;SDS011;69763;50.182;9.144;2023-11-19T06:04:36;2.83;;;1.60;;
80421;SDS011;69763;50.182;9.144;2023-11-19T06:07:02;2.97;;;1.65;;
80421;SDS011;69763;50.182;9.144;2023-11-19T06:09:28;2.92;;;2.05;;
80421;SDS011;69763;50.182;9.144;2023-11-19T06:11:54;2.50;;;1.70;;
80421;SDS011;69763;50.182;9.144;2023-11-19T06:14:19;2.22;;;1.70;;
80421;SDS011;69763;50.182;9.144;2023-11-19T06:16:45;2.50;;;1.70;;
80421;SDS011;69763;50.182;9.144;2023-11-19T06:19:10;3.35;;;2.08;;
80421;SDS011;69763;50.182;9.144;2023-11-19T06:21:36;5.18;;;1.80;;
80421;SDS011;69763;50.182;9.144;2023-11-19T06:24:01;3.10;;;2.40;;
80421;SDS011;69763;50.182;9.144;2023-11-19T06:26:28;2.67;;;1.83;;
80421;SDS011;69763;50.182;9.144;2023-11-19T06:28:53;3.15;;;1.98;;
80421;SDS011;69763;50.182;9.144;2023-11-19T06:31:19;5.13;;;2.25;;
80421;SDS011;69763;50.182;9.144;2023-11-19T06:33:44;3.08;;;2.10;;
80421;SDS011;69763;50.182;9.144;2023-11-19T06:36:13;2.60;;;1.90;;
80421;SDS011;69763;50.182;9.144;2023-11-19T06:38:39;3.75;;;2.10;;
80421;SDS011;69763;50.182;9.144;2023-11-19T06:41:06;5.10;;;2.20;;
80421;SDS011;69763;50.182;9.144;2023-11-19T06:43:33;3.55;;;2.33;;
80421;SDS011;69763;50.182;9.144;2023-11-19T06:48:24;3.47;;;2.10;;
80421;SDS011;69763;50.182;9.144;2023-11-19T06:50:49;2.72;;;2.28;;
80421;SDS011;69763;50.182;9.144;2023-11-19T06:53:15;2.83;;;2.17;;
80421;SDS011;69763;50.182;9.144;2023-11-19T06:55:40;6.85;;;2.40;;
80421;SDS011;69763;50.182;9.144;2023-11-19T06:58:06;3.35;;;2.67;;
80421;SDS011;69763;50.182;9.144;2023-11-19T07:00:32;4.30;;;2.40;;
80421;SDS011;69763;50.182;9.144;2023-11-19T07:02:58;4.28;;;2.40;;
80421;SDS011;69763;50.182;9.144;2023-11-19T07:05:23;6.47;;;2.45;;
80421;SDS011;69763;50.182;9.144;2023-11-19T07:07:48;3.15;;;2.17;;
80421;SDS011;69763;50.182;9.144;2023-11-19T07:10:14;3.95;;;2.55;;
80421;SDS011;69763;50.182;9.144;2023-11-19T07:12:39;3.28;;;2.35;;
80421;SDS011;69763;50.182;9.144;2023-11-19T07:15:05;4.60;;;2.58;;
80421;SDS011;69763;50.182;9.144;2023-11-19T07:17:32;3.90;;;2.60;;
80421;SDS011;69763;50.182;9.144;2023-11-19T07:19:58;3.70;;;2.47;;
80421;SDS011;69763;50.182;9.144;2023-11-19T07:22:23;3.35;;;2.50;;
80421;SDS011;69763;50.182;9.144;2023-11-19T07:24:48;3.40;;;2.40;;
80421;SDS011;69763;50.182;9.144;2023-11-19T07:27:14;3.83;;;2.75;;
80421;SDS011;69763;50.182;9.144;2023-11-19T07:29:40;3.85;;;2.97;;
80421;SDS011;69763;50.182;9.144;2023-11-19T07:32:08;9.18;;;2.85;;
80421;SDS011;69763;50.182;9.144;2023-11-19T07:34:34;3.95;;;2.80;;
80421;SDS011;69763;50.182;9.144;2023-11-19T07:37:00;6.88;;;3.08;;
80421;SDS011;69763;50.182;9.144;2023-11-19T07:39:25;3.83;;;2.60;;
80421;SDS011;69763;50.182;9.144;2023-11-19T07:41:50;3.72;;;2.70;;
80421;SDS011;69763;50.182;9.144;2023-11-19T07:44:16;3.65;;;2.63;;
80421;SDS011;69763;50.182;9.144;2023-11-19T07:46:41;4.03;;;2.83;;
80421;SDS011;69763;50.182;9.144;2023-11-19T07:49:06;7.07;;;3.25;;
80421;SDS011;69763;50.182;9.144;2023-11-19T07:51:33;7.10;;;3.05;;
80421;SDS011;69763;50.182;9.144;2023-11-19T07:53:59;4.03;;;2.47;;
80421;SDS011;69763;50.182;9.144;2023-11-19T07:56:24;3.88;;;2.38;;
80421;SDS011;69763;50.182;9.144;2023-11-19T07:58:49;3.38;;;2.35;;
80421;SDS011;69763;50.182;9.144;2023-11-19T08:01:15;4.57;;;2.47;;
80421;SDS011;69763;50.182;9.144;2023-11-19T08:03:40;3.38;;;2.28;;
80421;SDS011;69763;50.182;9.144;2023-11-19T08:06:06;5.07;;;2.75;;
80421;SDS011;69763;50.182;9.144;2023-11-19T08:08:33;3.85;;;2.00;;
80421;SDS011;69763;50.182;9.144;2023-11-19T08:10:58;3.45;;;2.33;;
80421;SDS011;69763;50.182;9.144;2023-11-19T08:13:24;4.57;;;2.63;;
80421;SDS011;69763;50.182;9.144;2023-11-19T08:15:49;5.63;;;2.10;;
80421;SDS011;69763;50.182;9.144;2023-11-19T08:18:15;3.75;;;2.42;;
80421;SDS011;69763;50.182;9.144;2023-11-19T08:20:40;3.05;;;2.20;;
80421;SDS011;69763;50.182;9.144;2023-11-19T08:23:05;3.50;;;2.20;;
80421;SDS011;69763;50.182;9.144;2023-11-19T08:25:32;4.10;;;2.30;;
80421;SDS011;69763;50.182;9.144;2023-11-19T08:27:57;3.40;;;2.38;;
80421;SDS011;69763;50.182;9.144;2023-11-19T08:30:23;3.50;;;2.38;;
80421;SDS011;69763;50.182;9.144;2023-11-19T08:32:48;5.68;;;2.88;;
80421;SDS011;69763;50.182;9.144;2023-11-19T08:35:14;3.72;;;2.00;;
80421;SDS011;69763;50.182;9.144;2023-11-19T08:37:39;3.63;;;2.25;;
80421;SDS011;69763;50.182;9.144;2023-11-19T08:40:05;5.53;;;2.40;;
80421;SDS011;69763;50.182;9.144;2023-11-19T08:42:32;2.97;;;1.92;;
80421;SDS011;69763;50.182;9.144;2023-11-19T08:44:58;4.68;;;2.40;;
80421;SDS011;69763;50.182;9.144;2023-11-19T08:47:23;2.90;;;2.17;;
80421;SDS011;69763;50.182;9.144;2023-11-19T08:49:50;3.22;;;2.40;;
80421;SDS011;69763;50.182;9.144;2023-11-19T08:52:15;2.50;;;1.98;;
80421;SDS011;69763;50.182;9.144;2023-11-19T08:54:42;3.55;;;2.40;;
80421;SDS011;69763;50.182;9.144;2023-11-19T08:57:07;4.00;;;2.95;;
80421;SDS011;69763;50.182;9.144;2023-11-19T08:59:34;5.60;;;2.80;;
80421;SDS011;69763;50.182;9.144;2023-11-19T09:01:59;4.68;;;2.75;;
80421;SDS011;69763;50.182;9.144;2023-11-19T09:04:25;3.63;;;2.90;;
80421;SDS011;69763;50.182;9.144;2023-11-19T09:06:50;5.00;;;2.72;;
80421;SDS011;69763;50.182;9.144;2023-11-19T09:09:15;4.47;;;2.88;;
80421;SDS011;69763;50.182;9.144;2023-11-19T09:11:41;6.68;;;3.13;;
80421;SDS011;69763;50.182;9.144;2023-11-19T09:14:06;3.88;;;2.70;;
80421;SDS011;69763;50.182;9.144;2023-11-19T09:16:33;5.63;;;4.00;;
80421;SDS011;69763;50.182;9.144;2023-11-19T09:18:58;4.45;;;3.03;;
80421;SDS011;69763;50.182;9.144;2023-11-19T09:21:24;5.72;;;3.50;;
80421;SDS011;69763;50.182;9.144;2023-11-19T09:23:49;5.85;;;2.75;;
80421;SDS011;69763;50.182;9.144;2023-11-19T09:26:15;4.68;;;2.95;;
80421;SDS011;69763;50.182;9.144;2023-11-19T09:28:40;3.88;;;2.60;;
80421;SDS011;69763;50.182;9.144;2023-11-19T09:31:12;5.10;;;3.22;;
80421;SDS011;69763;50.182;9.144;2023-11-19T09:33:39;6.70;;;3.28;;
80421;SDS011;69763;50.182;9.144;2023-11-19T09:36:05;4.38;;;3.13;;
80421;SDS011;69763;50.182;9.144;2023-11-19T09:38:31;3.78;;;2.47;;
80421;SDS011;69763;50.182;9.144;2023-11-19T09:40:57;3.33;;;2.55;;
80421;SDS011;69763;50.182;9.144;2023-11-19T09:43:23;4.82;;;2.85;;
80421;SDS011;69763;50.182;9.144;2023-11-19T09:45:49;4.53;;;2.20;;
80421;SDS011;69763;50.182;9.144;2023-11-19T09:48:16;6.38;;;2.70;;
80421;SDS011;69763;50.182;9.144;2023-11-19T09:50:43;5.90;;;2.33;;
80421;SDS011;69763;50.182;9.144;2023-11-19T09:53:10;5.22;;;2.53;;
80421;SDS011;69763;50.182;9.144;2023-11-19T09:55:35;5.35;;;2.45;;
80421;SDS011;69763;50.182;9.144;2023-11-19T09:58:00;3.45;;;2.00;;
80421;SDS011;69763;50.182;9.144;2023-11-19T10:00:26;5.00;;;2.10;;
80421;SDS011;69763;50.182;9.144;2023-11-19T10:02:52;5.80;;;2.70;;
80421;SDS011;69763;50.182;9.144;2023-11-19T10:05:19;4.85;;;1.83;;
80421;SDS011;69763;50.182;9.144;2023-11-19T10:07:48;4.10;;;2.45;;
80421;SDS011;69763;50.182;9.144;2023-11-19T10:10:13;3.60;;;2.20;;
80421;SDS011;69763;50.182;9.144;2023-11-19T10:12:39;4.47;;;1.90;;
80421;SDS011;69763;50.182;9.144;2023-11-19T10:15:05;11.05;;;2.20;;
80421;SDS011;69763;50.182;9.144;2023-11-19T10:17:35;2.67;;;1.73;;
80421;SDS011;69763;50.182;9.144;2023-11-19T10:20:00;3.83;;;1.63;;
80421;SDS011;69763;50.182;9.144;2023-11-19T10:22:27;4.50;;;1.98;;
80421;SDS011;69763;50.182;9.144;2023-11-19T10:24:54;4.03;;;1.65;;
80421;SDS011;69763;50.182;9.144;2023-11-19T10:27:19;3.50;;;1.63;;
80421;SDS011;69763;50.182;9.144;2023-11-19T10:29:45;6.65;;;1.90;;
80421;SDS011;69763;50.182;9.144;2023-11-19T10:32:10;3.95;;;1.70;;
80421;SDS011;69763;50.182;9.144;2023-11-19T10:34:37;2.85;;;1.63;;
80421;SDS011;69763;50.182;9.144;2023-11-19T10:37:02;5.35;;;1.77;;
80421;SDS011;69763;50.182;9.144;2023-11-19T10:39:32;8.13;;;1.85;;
80421;SDS011;69763;50.182;9.144;2023-11-19T10:42:18;4.30;;;2.13;;
80421;SDS011;69763;50.182;9.144;2023-11-19T10:44:43;5.95;;;2.25;;
80421;SDS011;69763;50.182;9.144;2023-11-19T10:47:09;4.18;;;1.58;;
80421;SDS011;69763;50.182;9.144;2023-11-19T10:49:36;6.03;;;2.08;;
80421;SDS011;69763;50.182;9.144;2023-11-19T10:52:02;6.82;;;2.25;;
80421;SDS011;69763;50.182;9.144;2023-11-19T10:54:29;4.03;;;2.05;;
80421;SDS011;69763;50.182;9.144;2023-11-19T10:56:58;3.88;;;1.80;;
80421;SDS011;69763;50.182;9.144;2023-11-19T10:59:25;4.28;;;1.85;;
80421;SDS011;69763;50.182;9.144;2023-11-19T11:01:53;7.85;;;2.00;;
80421;SDS011;69763;50.182;9.144;2023-11-19T11:04:22;5.45;;;1.65;;
80421;SDS011;69763;50.182;9.144;2023-11-19T11:06:48;6.38;;;2.00;;
80421;SDS011;69763;50.182;9.144;2023-11-19T11:09:13;6.82;;;1.90;;
80421;SDS011;69763;50.182;9.144;2023-11-19T11:11:40;16.55;;;2.08;;
80421;SDS011;69763;50.182;9.144;2023-11-19T11:14:05;5.80;;;2.28;;
80421;SDS011;69763;50.182;9.144;2023-11-19T11:16:33;6.60;;;2.30;;
80421;SDS011;69763;50.182;9.144;2023-11-19T11:19:02;6.18;;;2.00;;
80421;SDS011;69763;50.182;9.144;2023-11-19T11:21:28;3.90;;;1.80;;
80421;SDS011;69763;50.182;9.144;2023-11-19T11:24:02;10.80;;;2.05;;
80421;SDS011;69763;50.182;9.144;2023-11-19T11:26:50;7.60;;;1.58;;
80421;SDS011;69763;50.182;9.144;2023-11-19T11:29:30;4.70;;;2.40;;
80421;SDS011;69763;50.182;9.144;2023-11-19T11:32:15;6.28;;;2.13;;
80421;SDS011;69763;50.182;9.144;2023-11-19T11:34:53;3.42;;;2.00;;
80421;SDS011;69763;50.182;9.144;2023-11-19T11:37:30;5.07;;;1.65;;
80421;SDS011;69763;50.182;9.144;2023-11-19T11:39:58;4.88;;;1.77;;
80421;SDS011;69763;50.182;9.144;2023-11-19T11:45:07;11.43;;;3.42;;
80421;SDS011;69763;50.182;9.144;2023-11-19T11:50:47;6.07;;;1.83;;
80421;SDS011;69763;50.182;9.144;2023-11-19T11:53:17;3.95;;;1.90;;
80421;SDS011;69763;50.182;9.144;2023-11-19T11:55:53;10.32;;;1.85;;
80421;SDS011;69763;50.182;9.144;2023-11-19T12:00:51;4.95;;;2.38;;
80421;SDS011;69763;50.182;9.144;2023-11-19T12:03:19;5.72;;;2.28;;
80421;SDS011;69763;50.182;9.144;2023-11-19T12:05:47;5.45;;;1.90;;
80421;SDS011;69763;50.182;9.144;2023-11-19T12:08:13;4.50;;;1.60;;
80421;SDS011;69763;50.182;9.144;2023-11-19T12:10:43;7.13;;;1.95;;
80421;SDS011;69763;50.182;9.144;2023-11-19T12:13:10;12.63;;;3.15;;
80421;SDS011;69763;50.182;9.144;2023-11-19T12:15:45;5.10;;;1.83;;
80421;SDS011;69763;50.182;9.144;2023-11-19T12:18:33;5.40;;;2.85;;
80421;SDS011;69763;50.182;9.144;2023-11-19T12:21:00;6.35;;;2.03;;
80421;SDS011;69763;50.182;9.144;2023-11-19T12:23:25;5.00;;;2.15;;
80421;SDS011;69763;50.182;9.144;2023-11-19T12:25:51;10.00;;;2.00;;
80421;SDS011;69763;50.182;9.144;2023-11-19T12:28:17;4.65;;;1.83;;
80421;SDS011;69763;50.182;9.144;2023-11-19T12:30:42;5.00;;;2.10;;
80421;SDS011;69763;50.182;9.144;2023-11-19T12:33:08;12.60;;;2.20;;
80421;SDS011;69763;50.182;9.144;2023-11-19T12:35:38;7.78;;;2.95;;
80421;SDS011;69763;50.182;9.144;2023-11-19T12:38:08;8.80;;;2.38;;
80421;SDS011;69763;50.182;9.144;2023-11-19T12:40:43;5.57;;;2.08;;
80421;SDS011;69763;50.182;9.144;2023-11-19T12:43:08;8.75;;;2.00;;
80421;SDS011;69763;50.182;9.144;2023-11-19T12:45:34;11.55;;;2.15;;
80421;SDS011;69763;50.182;9.144;2023-11-19T12:53:17;8.85;;;1.88;;
80421;SDS011;69763;50.182;9.144;2023-11-19T12:55:42;8.95;;;2.65;;
80421;SDS011;69763;50.182;9.144;2023-11-19T12:58:08;9.48;;;2.13;;
80421;SDS011;69763;50.182;9.144;2023-11-19T13:00:33;8.15;;;2.15;;
80421;SDS011;69763;50.182;9.144;2023-11-19T13:02:59;10.68;;;2.30;;
80421;SDS011;69763;50.182;9.144;2023-11-19T13:05:25;9.35;;;1.92;;
80421;SDS011;69763;50.182;9.144;2023-11-19T13:07:57;9.55;;;2.58;;
80421;SDS011;69763;50.182;9.144;2023-11-19T13:10:24;6.40;;;2.55;;
80421;SDS011;69763;50.182;9.144;2023-11-19T13:12:59;9.77;;;2.10;;
80421;SDS011;69763;50.182;9.144;2023-11-19T13:15:25;11.63;;;2.80;;
80421;SDS011;69763;50.182;9.144;2023-11-19T13:17:51;6.40;;;2.33;;
80421;SDS011;69763;50.182;9.144;2023-11-19T13:20:16;17.38;;;2.58;;
80421;SDS011;69763;50.182;9.144;2023-11-19T13:22:53;9.85;;;2.55;;
80421;SDS011;69763;50.182;9.144;2023-11-19T13:25:19;10.18;;;2.25;;
80421;SDS011;69763;50.182;9.144;2023-11-19T13:27:46;9.77;;;2.40;;
80421;SDS011;69763;50.182;9.144;2023-11-19T13:30:12;11.45;;;2.58;;
80421;SDS011;69763;50.182;9.144;2023-11-19T13:32:38;13.98;;;2.53;;
80421;SDS011;69763;50.182;9.144;2023-11-19T13:35:04;8.73;;;2.40;;
80421;SDS011;69763;50.182;9.144;2023-11-19T13:39:55;9.40;;;2.70;;
80421;SDS011;69763;50.182;9.144;2023-11-19T13:42:21;12.68;;;2.67;;
80421;SDS011;69763;50.182;9.144;2023-11-19T13:44:48;6.63;;;2.28;;
80421;SDS011;69763;50.182;9.144;2023-11-19T13:47:13;10.35;;;3.17;;
80421;SDS011;69763;50.182;9.144;2023-11-19T13:49:38;5.28;;;2.00;;
80421;SDS011;69763;50.182;9.144;2023-11-19T13:52:04;8.52;;;2.30;;
80421;SDS011;69763;50.182;9.144;2023-11-19T13:54:29;9.90;;;2.05;;
80421;SDS011;69763;50.182;9.144;2023-11-19T13:56:55;4.35;;;2.13;;
80421;SDS011;69763;50.182;9.144;2023-11-19T13:59:20;7.03;;;2.10;;
80421;SDS011;69763;50.182;9.144;2023-11-19T14:01:47;9.52;;;2.15;;
80421;SDS011;69763;50.182;9.144;2023-11-19T14:04:13;14.50;;;2.28;;
80421;SDS011;69763;50.182;9.144;2023-11-19T14:06:38;4.63;;;1.80;;
80421;SDS011;69763;50.182;9.144;2023-11-19T14:09:03;7.28;;;1.92;;
80421;SDS011;69763;50.182;9.144;2023-11-19T14:11:31;8.55;;;2.25;;
80421;SDS011;69763;50.182;9.144;2023-11-19T14:13:56;6.97;;;2.25;;
80421;SDS011;69763;50.182;9.144;2023-11-19T14:16:22;5.30;;;1.77;;
80421;SDS011;69763;50.182;9.144;2023-11-19T14:18:52;5.88;;;1.88;;
80421;SDS011;69763;50.182;9.144;2023-11-19T14:21:17;7.65;;;1.92;;
80421;SDS011;69763;50.182;9.144;2023-11-19T14:23:43;7.47;;;2.20;;
80421;SDS011;69763;50.182;9.144;2023-11-19T14:26:08;5.18;;;1.70;;
80421;SDS011;69763;50.182;9.144;2023-11-19T14:28:34;8.77;;;2.50;;
80421;SDS011;69763;50.182;9.144;2023-11-19T14:30:59;7.53;;;2.25;;
80421;SDS011;69763;50.182;9.144;2023-11-19T14:33:24;7.80;;;1.92;;
80421;SDS011;69763;50.182;9.144;2023-11-19T14:35:51;9.93;;;2.25;;
80421;SDS011;69763;50.182;9.144;2023-11-19T14:38:17;8.55;;;1.92;;
80421;SDS011;69763;50.182;9.144;2023-11-19T14:40:42;4.15;;;1.70;;
80421;SDS011;69763;50.182;9.144;2023-11-19T14:43:07;9.68;;;2.58;;
80421;SDS011;69763;50.182;9.144;2023-11-19T14:45:33;2.78;;;1.50;;
80421;SDS011;69763;50.182;9.144;2023-11-19T14:47:58;4.68;;;1.80;;
80421;SDS011;69763;50.182;9.144;2023-11-19T14:50:24;5.32;;;1.85;;
80421;SDS011;69763;50.182;9.144;2023-11-19T14:52:50;7.78;;;4.13;;
80421;SDS011;69763;50.182;9.144;2023-11-19T14:55:16;6.47;;;2.25;;
80421;SDS011;69763;50.182;9.144;2023-11-19T14:57:41;5.00;;;1.60;;
80421;SDS011;69763;50.182;9.144;2023-11-19T15:00:07;8.23;;;1.90;;
80421;SDS011;69763;50.182;9.144;2023-11-19T15:02:33;14.32;;;2.28;;
80421;SDS011;69763;50.182;9.144;2023-11-19T15:04:58;10.88;;;1.88;;
80421;SDS011;69763;50.182;9.144;2023-11-19T15:07:23;8.65;;;1.70;;
80421;SDS011;69763;50.182;9.144;2023-11-19T15:09:50;6.25;;;1.83;;
80421;SDS011;69763;50.182;9.144;2023-11-19T15:12:15;6.10;;;1.77;;
80421;SDS011;69763;50.182;9.144;2023-11-19T15:14:41;9.60;;;2.10;;
80421;SDS011;69763;50.182;9.144;2023-11-19T15:17:06;11.20;;;2.10;;
80421;SDS011;69763;50.182;9.144;2023-11-19T15:19:32;8.52;;;1.95;;
80421;SDS011;69763;50.182;9.144;2023-11-19T15:21:57;7.55;;;2.28;;
80421;SDS011;69763;50.182;9.144;2023-11-19T15:24:22;8.20;;;2.30;;
80421;SDS011;69763;50.182;9.144;2023-11-19T15:26:49;8.82;;;2.17;;
80421;SDS011;69763;50.182;9.144;2023-11-19T15:29:14;8.07;;;2.05;;
80421;SDS011;69763;50.182;9.144;2023-11-19T15:31:40;8.10;;;2.38;;
80421;SDS011;69763;50.182;9.144;2023-11-19T15:34:05;5.78;;;2.15;;